createdAt,value
2022-10-02T00:02:38.735Z,11.60
2022-10-02T00:05:27.960Z,11.50
2022-10-02T00:08:12.317Z,11.50
2022-10-02T00:11:24.577Z,11.50
2022-10-02T00:13:57.055Z,11.50
2022-10-02T00:16:40.283Z,11.50
2022-10-02T00:19:11.380Z,11.60
2022-10-02T00:21:47.198Z,11.60
2022-10-02T00:24:28.512Z,11.60
2022-10-02T00:27:16.014Z,11.60
2022-10-02T00:29:54.414Z,11.60
2022-10-02T00:32:45.413Z,11.60
2022-10-02T00:35:30.739Z,11.50
2022-10-02T00:38:19.614Z,11.50
2022-10-02T00:40:55.918Z,11.50
2022-10-02T00:43:51.565Z,11.40
2022-10-02T00:46:27.944Z,11.60
2022-10-02T00:49:17.552Z,11.50
2022-10-02T00:52:17.003Z,11.60
2022-10-02T00:54:53.069Z,11.60
2022-10-02T00:57:45.270Z,11.60
2022-10-02T01:00:16.292Z,11.60
2022-10-02T01:03:00.347Z,11.60
2022-10-02T01:05:28.156Z,11.60
2022-10-02T01:07:56.583Z,11.60
2022-10-02T01:10:25.714Z,11.40
2022-10-02T01:12:55.536Z,11.40
2022-10-02T01:15:29.505Z,11.40
2022-10-02T01:17:57.411Z,11.40
2022-10-02T01:20:49.988Z,11.40
2022-10-02T01:23:36.009Z,11.40
2022-10-02T01:26:03.661Z,11.40
2022-10-02T01:28:31.252Z,11.40
2022-10-02T01:31:07.853Z,11.60
2022-10-02T01:33:37.295Z,11.50
2022-10-02T01:36:05.343Z,11.50
2022-10-02T01:38:32.822Z,11.40
2022-10-02T01:41:00.350Z,11.40
2022-10-02T01:43:34.261Z,11.20
2022-10-02T01:46:07.828Z,11.10
2022-10-02T01:48:45.684Z,10.90
2022-10-02T01:51:20.714Z,10.80
2022-10-02T01:54:08.579Z,10.90
2022-10-02T01:57:00.381Z,10.70
2022-10-02T01:59:45.921Z,10.70
2022-10-02T02:02:16.088Z,10.70
2022-10-02T02:05:06.087Z,10.80
2022-10-02T02:07:43.087Z,10.90
2022-10-02T02:10:39.927Z,10.90
2022-10-02T02:13:23.657Z,11.00
2022-10-02T02:16:10.854Z,11.00
2022-10-02T02:19:15.228Z,11.10
2022-10-02T02:21:50.484Z,11.10
2022-10-02T02:24:29.391Z,11.10
2022-10-02T02:27:01.629Z,11.10
2022-10-02T02:29:32.590Z,11.10
2022-10-02T02:32:03.009Z,11.10
2022-10-02T02:34:35.625Z,11.10
2022-10-02T02:37:08.850Z,11.10
2022-10-02T02:40:03.251Z,11.10
2022-10-02T02:42:36.503Z,11.00
2022-10-02T02:45:03.831Z,11.00
2022-10-02T02:47:53.791Z,10.90
2022-10-02T02:50:33.040Z,11.00
2022-10-02T02:53:30.624Z,11.00
2022-10-02T02:56:00.909Z,11.10
2022-10-02T02:58:42.076Z,11.20
2022-10-02T03:01:09.678Z,11.20
2022-10-02T03:03:37.059Z,11.30
2022-10-02T03:06:07.920Z,11.30
2022-10-02T03:08:37.652Z,11.30
2022-10-02T03:11:57.349Z,11.30
2022-10-02T03:14:30.677Z,11.40
2022-10-02T03:17:22.833Z,11.40
2022-10-02T03:20:17.233Z,11.40
2022-10-02T03:23:09.960Z,11.40
2022-10-02T03:25:49.911Z,11.30
2022-10-02T03:28:53.900Z,11.20
2022-10-02T03:31:17.544Z,11.10
2022-10-02T03:33:46.071Z,10.90
2022-10-02T03:36:16.442Z,10.90
2022-10-02T03:38:50.118Z,10.90
2022-10-02T03:41:24.292Z,10.80
2022-10-02T03:43:51.629Z,10.50
2022-10-02T03:46:19.185Z,10.70
2022-10-02T03:48:46.625Z,10.60
2022-10-02T03:51:14.309Z,10.60
2022-10-02T03:53:42.744Z,10.50
2022-10-02T03:56:26.826Z,10.50
2022-10-02T03:58:57.627Z,10.50
2022-10-02T04:01:33.575Z,10.50
2022-10-02T04:04:15.315Z,10.40
2022-10-02T04:06:48.002Z,10.40
2022-10-02T04:09:37.577Z,10.20
2022-10-02T04:12:16.920Z,10.20
2022-10-02T04:14:57.959Z,10.10
2022-10-02T04:17:38.930Z,10.00
2022-10-02T04:20:17.103Z,10.20
2022-10-02T04:23:12.355Z,10.20
2022-10-02T04:25:45.342Z,10.10
2022-10-02T04:28:15.530Z,10.10
2022-10-02T04:30:42.968Z,10.10
2022-10-02T04:33:18.227Z,10.20
2022-10-02T04:36:10.100Z,10.20
2022-10-02T04:39:04.683Z,10.20
2022-10-02T04:41:45.391Z,10.30
2022-10-02T04:44:36.773Z,10.40
2022-10-02T04:47:15.950Z,10.40
2022-10-02T04:50:19.361Z,10.50
2022-10-02T04:53:12.607Z,10.60
2022-10-02T04:56:07.849Z,10.60
2022-10-02T04:58:53.351Z,10.70
2022-10-02T05:01:52.846Z,10.70
2022-10-02T05:04:30.027Z,10.70
2022-10-02T05:07:22.558Z,10.80
2022-10-02T05:10:13.822Z,10.90
2022-10-02T05:13:06.942Z,10.90
2022-10-02T05:15:58.223Z,10.90
2022-10-02T05:18:37.590Z,11.00
2022-10-02T05:21:20.947Z,11.00
2022-10-02T05:24:19.827Z,11.00
2022-10-02T05:27:25.965Z,11.00
2022-10-02T05:30:14.390Z,11.00
2022-10-02T05:33:28.515Z,11.10
2022-10-02T05:36:07.650Z,11.10
2022-10-02T05:38:49.789Z,11.10
2022-10-02T05:41:23.174Z,11.20
2022-10-02T05:43:53.238Z,11.20
2022-10-02T05:46:26.380Z,11.20
2022-10-02T05:49:22.528Z,11.30
2022-10-02T05:52:08.228Z,11.30
2022-10-02T05:54:57.222Z,11.30
2022-10-02T05:57:32.787Z,11.40
2022-10-02T06:00:31.449Z,11.40
2022-10-02T06:03:31.767Z,11.50
2022-10-02T06:06:30.060Z,11.60
2022-10-02T06:09:09.680Z,11.70
2022-10-02T06:11:47.518Z,11.80
2022-10-02T06:14:33.754Z,11.90
2022-10-02T06:17:16.843Z,12.00
2022-10-02T06:20:15.145Z,12.10
2022-10-02T06:22:47.871Z,12.10
2022-10-02T06:25:39.590Z,12.30
2022-10-02T06:28:25.633Z,12.30
2022-10-02T06:31:21.719Z,12.40
2022-10-02T06:33:51.866Z,12.50
2022-10-02T06:36:51.371Z,12.50
2022-10-02T06:39:28.385Z,12.60
2022-10-02T06:42:10.658Z,12.10
2022-10-02T06:44:41.150Z,12.50
2022-10-02T06:47:27.178Z,12.50
2022-10-02T06:50:22.742Z,12.50
2022-10-02T06:52:50.192Z,12.50
2022-10-02T06:56:06.118Z,12.50
2022-10-02T06:58:49.240Z,12.60
2022-10-02T07:01:31.627Z,12.60
2022-10-02T07:04:08.247Z,12.70
2022-10-02T07:06:41.491Z,12.60
2022-10-02T07:09:27.809Z,12.30
2022-10-02T07:12:09.645Z,12.60
2022-10-02T07:14:52.698Z,12.70
2022-10-02T07:17:35.033Z,12.70
2022-10-02T07:20:32.427Z,12.60
2022-10-02T07:23:24.331Z,12.60
2022-10-02T07:26:00.820Z,12.60
2022-10-02T07:28:33.689Z,12.50
2022-10-02T07:31:09.950Z,12.60
2022-10-02T07:34:01.665Z,12.70
2022-10-02T07:36:48.934Z,12.70
2022-10-02T07:39:44.163Z,12.70
2022-10-02T07:42:11.617Z,12.70
2022-10-02T07:45:00.249Z,12.70
2022-10-02T07:48:06.555Z,12.60
2022-10-02T07:50:54.949Z,12.30
2022-10-02T07:53:49.874Z,12.70
2022-10-02T07:56:22.785Z,12.70
2022-10-02T07:59:04.402Z,12.70
2022-10-02T08:01:37.091Z,12.70
2022-10-02T08:04:12.774Z,12.70
2022-10-02T08:06:40.948Z,12.60
2022-10-02T08:09:21.928Z,12.60
2022-10-02T08:12:21.784Z,12.60
2022-10-02T08:14:52.764Z,12.60
2022-10-02T08:17:23.688Z,12.70
2022-10-02T08:19:52.499Z,12.70
2022-10-02T08:22:34.796Z,12.70
2022-10-02T08:26:03.652Z,12.80
2022-10-02T08:28:40.333Z,12.80
2022-10-02T08:31:12.302Z,12.80
2022-10-02T08:33:40.421Z,13.20
2022-10-02T08:36:16.880Z,13.30
2022-10-02T08:39:15.727Z,12.90
2022-10-02T08:42:04.343Z,13.00
2022-10-02T08:44:51.261Z,13.00
2022-10-02T08:47:34.406Z,13.00
2022-10-02T08:50:20.274Z,13.00
2022-10-02T08:53:14.397Z,13.00
2022-10-02T08:56:03.415Z,13.10
2022-10-02T08:58:51.848Z,13.30
2022-10-02T09:01:59.927Z,13.10
2022-10-02T09:05:01.988Z,13.10
2022-10-02T09:07:47.428Z,13.00
2022-10-02T09:10:46.017Z,13.00
2022-10-02T09:13:32.327Z,13.00
2022-10-02T09:16:09.359Z,13.00
2022-10-02T09:19:00.510Z,13.10
2022-10-02T09:21:57.224Z,13.00
2022-10-02T09:24:51.675Z,13.00
2022-10-02T09:27:52.943Z,13.50
2022-10-02T09:30:36.987Z,13.00
2022-10-02T09:33:39.487Z,13.20
2022-10-02T09:36:26.788Z,13.00
2022-10-02T09:39:10.202Z,13.00
2022-10-02T09:41:37.685Z,13.00
2022-10-02T09:44:37.256Z,13.00
2022-10-02T09:47:22.972Z,13.00
2022-10-02T09:50:21.593Z,13.00
2022-10-02T09:53:13.767Z,13.10
2022-10-02T09:56:13.321Z,13.10
2022-10-02T09:59:04.001Z,13.10
2022-10-02T10:02:23.439Z,13.10
2022-10-02T10:05:10.468Z,13.10
2022-10-02T10:08:11.658Z,13.30
2022-10-02T10:11:00.705Z,13.30
2022-10-02T10:13:40.263Z,13.30
2022-10-02T10:16:46.107Z,13.30
2022-10-02T10:19:23.904Z,13.30
2022-10-02T10:21:54.064Z,13.30
2022-10-02T10:25:15.820Z,13.30
2022-10-02T10:28:14.010Z,13.30
2022-10-02T10:30:53.422Z,13.30
2022-10-02T10:33:42.919Z,13.50
2022-10-02T10:37:20.478Z,13.50
2022-10-02T10:40:09.300Z,13.60
2022-10-02T10:43:05.983Z,13.60
2022-10-02T10:45:49.154Z,14.00
2022-10-02T10:48:28.188Z,13.60
2022-10-02T10:51:00.958Z,13.70
2022-10-02T10:53:46.850Z,13.70
2022-10-02T10:56:53.720Z,13.70
2022-10-02T10:59:42.594Z,13.70
2022-10-02T11:02:47.906Z,13.50
2022-10-02T11:05:34.113Z,12.70
2022-10-02T11:08:38.876Z,13.20
2022-10-02T11:11:27.995Z,13.10
2022-10-02T11:14:17.011Z,12.90
2022-10-02T11:17:10.893Z,12.90
2022-10-02T11:19:52.183Z,12.90
2022-10-02T11:22:50.576Z,12.90
2022-10-02T11:25:40.068Z,13.00
2022-10-02T11:28:40.023Z,13.00
2022-10-02T11:31:42.885Z,13.10
2022-10-02T11:34:44.158Z,13.30
2022-10-02T11:37:46.647Z,13.40
2022-10-02T11:40:58.562Z,13.50
2022-10-02T11:43:29.728Z,13.50
2022-10-02T11:46:37.234Z,13.40
2022-10-02T11:49:07.983Z,13.40
2022-10-02T11:51:53.490Z,13.50
2022-10-02T11:54:37.530Z,13.50
2022-10-02T11:57:14.454Z,13.50
2022-10-02T12:00:06.575Z,13.50
2022-10-02T12:02:56.997Z,13.50
2022-10-02T12:05:42.825Z,13.50
2022-10-02T12:08:24.402Z,13.40
2022-10-02T12:11:06.742Z,13.20
2022-10-02T12:13:47.385Z,13.20
2022-10-02T12:16:35.856Z,13.20
2022-10-02T12:19:22.065Z,13.20
2022-10-02T12:22:45.271Z,13.20
2022-10-02T12:25:52.495Z,13.20
2022-10-02T12:28:29.905Z,13.10
2022-10-02T12:31:26.984Z,13.10
2022-10-02T12:34:35.612Z,13.10
2022-10-02T12:37:13.623Z,13.20
2022-10-02T12:39:47.009Z,13.10
2022-10-02T12:42:41.129Z,13.00
2022-10-02T12:45:22.897Z,13.10
2022-10-02T12:48:01.856Z,13.10
2022-10-02T12:50:39.837Z,13.10
2022-10-02T12:53:22.048Z,13.20
2022-10-02T12:56:28.667Z,13.20
2022-10-02T12:59:17.537Z,13.20
2022-10-02T13:02:13.325Z,13.20
2022-10-02T13:05:10.277Z,13.20
2022-10-02T13:07:58.885Z,13.20
2022-10-02T13:10:33.436Z,13.20
2022-10-02T13:13:13.934Z,13.10
2022-10-02T13:15:58.550Z,13.00
2022-10-02T13:19:00.397Z,12.90
2022-10-02T13:21:39.375Z,12.90
2022-10-02T13:24:30.954Z,13.00
2022-10-02T13:27:18.781Z,12.70
2022-10-02T13:30:05.962Z,12.90
2022-10-02T13:33:08.632Z,12.80
2022-10-02T13:35:46.049Z,12.90
2022-10-02T13:38:31.971Z,12.90
2022-10-02T13:40:59.439Z,12.90
2022-10-02T13:43:29.476Z,12.90
2022-10-02T13:46:23.130Z,12.90
2022-10-02T13:49:01.636Z,12.80
2022-10-02T13:51:40.588Z,12.70
2022-10-02T13:54:41.186Z,12.70
2022-10-02T13:57:23.952Z,12.60
2022-10-02T14:00:28.915Z,12.60
2022-10-02T14:03:22.703Z,12.60
2022-10-02T14:06:13.297Z,12.60
2022-10-02T14:08:57.563Z,12.40
2022-10-02T14:11:46.423Z,12.40
2022-10-02T14:14:46.284Z,12.40
2022-10-02T14:17:35.948Z,12.40
2022-10-02T14:20:19.167Z,12.40
2022-10-02T14:23:10.782Z,12.30
2022-10-02T14:25:53.303Z,12.20
2022-10-02T14:28:54.463Z,12.20
2022-10-02T14:31:33.914Z,12.10
2022-10-02T14:34:53.220Z,11.40
2022-10-02T14:37:58.238Z,12.10
2022-10-02T14:40:34.745Z,12.00
2022-10-02T14:43:05.037Z,12.00
2022-10-02T14:45:48.321Z,12.00
2022-10-02T14:48:21.006Z,12.10
2022-10-02T14:50:56.339Z,12.00
2022-10-02T14:53:42.920Z,11.90
2022-10-02T14:56:22.955Z,11.40
2022-10-02T14:59:24.681Z,11.50
2022-10-02T15:02:10.025Z,12.00
2022-10-02T15:05:04.413Z,12.00
2022-10-02T15:07:35.035Z,11.90
2022-10-02T15:10:20.990Z,11.90
2022-10-02T15:13:24.723Z,11.90
2022-10-02T15:16:36.743Z,11.90
2022-10-02T15:19:33.196Z,11.90
2022-10-02T15:22:34.249Z,11.90
2022-10-02T15:25:21.667Z,11.90
2022-10-02T15:28:34.990Z,11.90
2022-10-02T15:31:23.895Z,11.90
2022-10-02T15:34:07.878Z,12.00
2022-10-02T15:37:00.687Z,12.10
2022-10-02T15:39:45.436Z,12.00
2022-10-02T15:42:23.111Z,12.00
2022-10-02T15:45:03.225Z,12.00
2022-10-02T15:48:03.056Z,11.90
2022-10-02T15:50:33.329Z,11.90
2022-10-02T15:53:25.593Z,11.90
2022-10-02T15:56:00.328Z,11.80
2022-10-02T15:59:05.611Z,11.80
2022-10-02T16:02:08.756Z,11.70
2022-10-02T16:05:07.930Z,11.70
2022-10-02T16:07:56.863Z,11.70
2022-10-02T16:10:26.768Z,11.60
2022-10-02T16:13:12.802Z,11.60
2022-10-02T16:15:56.673Z,11.60
2022-10-02T16:18:49.077Z,11.60
2022-10-02T16:21:37.359Z,11.50
2022-10-02T16:24:33.790Z,11.60
2022-10-02T16:27:32.979Z,11.60
2022-10-02T16:30:13.690Z,11.60
2022-10-02T16:32:41.069Z,11.60
2022-10-02T16:35:33.183Z,11.60
2022-10-02T16:38:14.109Z,11.60
2022-10-02T16:40:57.192Z,11.50
2022-10-02T16:43:49.266Z,11.50
2022-10-02T16:46:44.472Z,11.50
2022-10-02T16:49:20.283Z,11.40
2022-10-02T16:52:06.342Z,11.30
2022-10-02T16:54:58.163Z,11.30
2022-10-02T16:57:46.590Z,11.20
2022-10-02T17:00:24.409Z,11.20
2022-10-02T17:03:21.332Z,11.10
2022-10-02T17:05:51.740Z,11.10
2022-10-02T17:08:43.779Z,11.10
2022-10-02T17:11:25.394Z,11.00
2022-10-02T17:14:15.081Z,11.00
2022-10-02T17:16:56.043Z,11.00
2022-10-02T17:19:26.656Z,10.90
2022-10-02T17:22:00.166Z,10.90
2022-10-02T17:25:12.278Z,10.90
2022-10-02T17:27:54.408Z,11.00
2022-10-02T17:30:27.432Z,11.00
2022-10-02T17:33:07.727Z,11.00
2022-10-02T17:35:44.989Z,10.90
2022-10-02T17:38:24.304Z,10.80
2022-10-02T17:41:13.278Z,10.70
2022-10-02T17:43:58.453Z,10.70
2022-10-02T17:46:44.695Z,10.60
2022-10-02T17:49:18.143Z,10.60
2022-10-02T17:51:54.891Z,10.60
2022-10-02T17:55:09.923Z,10.50
2022-10-02T17:58:14.011Z,10.50
2022-10-02T18:01:14.529Z,10.40
2022-10-02T18:04:28.557Z,10.40
2022-10-02T18:07:10.894Z,10.40
2022-10-02T18:09:47.301Z,10.40
2022-10-02T18:12:20.821Z,10.40
2022-10-02T18:14:57.523Z,10.50
2022-10-02T18:17:41.591Z,10.50
2022-10-02T18:20:21.283Z,10.50
2022-10-02T18:23:07.598Z,10.50
2022-10-02T18:26:18.052Z,10.40
2022-10-02T18:29:18.781Z,10.30
2022-10-02T18:32:24.906Z,10.20
2022-10-02T18:35:22.947Z,10.10
2022-10-02T18:38:03.053Z,10.00
2022-10-02T18:40:55.960Z,9.20
2022-10-02T18:43:58.294Z,9.80
2022-10-02T18:47:02.777Z,9.70
2022-10-02T18:50:24.725Z,9.70
2022-10-02T18:52:57.321Z,9.70
2022-10-02T18:55:37.112Z,9.70
2022-10-02T18:58:34.372Z,9.60
2022-10-02T19:01:24.253Z,9.50
2022-10-02T19:04:12.119Z,9.60
2022-10-02T19:07:06.753Z,9.50
2022-10-02T19:09:34.422Z,9.50
2022-10-02T19:12:24.797Z,9.50
2022-10-02T19:15:09.788Z,9.50
2022-10-02T19:17:37.909Z,9.40
2022-10-02T19:20:42.339Z,9.40
2022-10-02T19:23:22.360Z,9.40
2022-10-02T19:25:51.185Z,9.40
2022-10-02T19:28:23.464Z,9.40
2022-10-02T19:30:54.787Z,9.30
2022-10-02T19:33:32.309Z,9.30
2022-10-02T19:36:05.050Z,9.30
2022-10-02T19:38:42.362Z,9.30
2022-10-02T19:41:14.492Z,9.30
2022-10-02T19:43:56.642Z,9.30
2022-10-02T19:46:38.508Z,9.20
2022-10-02T19:49:07.465Z,9.20
2022-10-02T19:51:46.333Z,9.20
2022-10-02T19:54:20.331Z,9.30
2022-10-02T19:56:48.000Z,9.30
2022-10-02T19:59:27.872Z,9.20
2022-10-02T20:01:59.580Z,9.20
2022-10-02T20:04:30.561Z,9.10
2022-10-02T20:07:00.053Z,9.10
2022-10-02T20:09:32.332Z,9.20
2022-10-02T20:12:15.778Z,9.20
2022-10-02T20:14:50.067Z,9.20
2022-10-02T20:17:19.155Z,9.20
2022-10-02T20:19:54.528Z,9.20
2022-10-02T20:22:56.064Z,9.50
2022-10-02T20:25:28.730Z,9.10
2022-10-02T20:28:11.724Z,9.00
2022-10-02T20:30:52.394Z,9.00
2022-10-02T20:33:38.381Z,9.10
2022-10-02T20:36:43.228Z,9.00
2022-10-02T20:39:24.852Z,9.00
2022-10-02T20:42:05.454Z,8.90
2022-10-02T20:44:34.716Z,8.80
2022-10-02T20:47:20.981Z,8.80
2022-10-02T20:50:12.572Z,8.90
2022-10-02T20:52:40.498Z,9.00
2022-10-02T20:55:28.102Z,9.00
2022-10-02T20:58:29.140Z,8.90
2022-10-02T21:00:59.571Z,8.90
2022-10-02T21:03:45.104Z,8.80
2022-10-02T21:06:23.032Z,8.70
2022-10-02T21:09:19.888Z,8.10
2022-10-02T21:11:56.297Z,8.60
2022-10-02T21:14:54.763Z,8.60
2022-10-02T21:17:34.616Z,8.60
2022-10-02T21:20:33.278Z,8.50
2022-10-02T21:23:45.254Z,8.50
2022-10-02T21:26:36.732Z,8.40
2022-10-02T21:29:24.432Z,8.40
2022-10-02T21:32:20.390Z,8.40
2022-10-02T21:34:54.604Z,8.40
2022-10-02T21:37:47.559Z,8.40
2022-10-02T21:40:18.351Z,8.40
2022-10-02T21:42:54.777Z,8.30
2022-10-02T21:45:48.930Z,8.30
2022-10-02T21:48:48.899Z,8.30
2022-10-02T21:51:40.452Z,8.30
2022-10-02T21:54:35.183Z,8.30
2022-10-02T21:57:31.117Z,8.30
2022-10-02T22:00:08.251Z,8.20
2022-10-02T22:02:54.173Z,8.30
2022-10-02T22:05:59.340Z,8.20
2022-10-02T22:08:32.726Z,8.20
2022-10-02T22:11:22.881Z,8.20
2022-10-02T22:13:59.189Z,8.30
2022-10-02T22:16:57.568Z,8.30
2022-10-02T22:19:39.014Z,8.30
2022-10-02T22:22:15.201Z,8.30
2022-10-02T22:25:27.094Z,8.20
2022-10-02T22:28:03.759Z,8.20
2022-10-02T22:30:40.177Z,8.20
2022-10-02T22:33:14.067Z,8.20
2022-10-02T22:36:05.700Z,8.20
2022-10-02T22:38:38.059Z,8.20
2022-10-02T22:41:21.671Z,8.10
2022-10-02T22:43:53.946Z,8.10
2022-10-02T22:46:29.795Z,8.10
2022-10-02T22:49:25.429Z,8.10
2022-10-02T22:52:21.483Z,8.10
2022-10-02T22:55:03.695Z,8.10
2022-10-02T22:57:46.754Z,8.00
2022-10-02T23:00:20.372Z,7.90
2022-10-02T23:03:20.743Z,7.90
2022-10-02T23:05:55.773Z,7.90
2022-10-02T23:08:38.567Z,7.90
2022-10-02T23:11:44.372Z,7.80
2022-10-02T23:14:22.887Z,7.80
2022-10-02T23:17:25.576Z,7.80
2022-10-02T23:20:18.286Z,7.80
2022-10-02T23:22:59.546Z,7.80
2022-10-02T23:25:37.371Z,7.80
2022-10-02T23:28:11.533Z,7.80
2022-10-02T23:30:46.936Z,7.90
2022-10-02T23:33:27.410Z,8.00
2022-10-02T23:36:01.338Z,8.00
2022-10-02T23:38:50.154Z,8.00
2022-10-02T23:41:47.435Z,8.00
2022-10-02T23:44:33.706Z,8.00
2022-10-02T23:47:21.056Z,7.90
2022-10-02T23:49:55.776Z,7.80
2022-10-02T23:52:47.112Z,7.90
2022-10-02T23:55:45.483Z,7.90
2022-10-02T23:59:00.246Z,7.80
